createdAt,value
2022-07-29T00:01:43.503Z,18.40
2022-07-29T00:04:12.548Z,18.35
2022-07-29T00:06:41.210Z,18.28
2022-07-29T00:09:09.892Z,18.30
2022-07-29T00:11:38.645Z,18.26
2022-07-29T00:14:07.304Z,18.30
2022-07-29T00:16:35.889Z,18.25
2022-07-29T00:19:04.775Z,18.28
2022-07-29T00:21:33.240Z,18.21
2022-07-29T00:24:01.704Z,18.22
2022-07-29T00:26:32.722Z,18.26
2022-07-29T00:29:32.975Z,18.27
2022-07-29T00:31:55.402Z,18.17
2022-07-29T00:34:41.632Z,18.19
2022-07-29T00:37:10.056Z,18.19
2022-07-29T00:39:38.496Z,18.17
2022-07-29T00:42:07.342Z,18.16
2022-07-29T00:44:40.694Z,18.16
2022-07-29T00:47:09.993Z,18.08
2022-07-29T00:49:43.656Z,18.07
2022-07-29T00:52:16.994Z,18.06
2022-07-29T00:54:45.743Z,18.02
2022-07-29T00:57:14.606Z,18.00
2022-07-29T00:59:43.069Z,18.00
2022-07-29T01:02:11.560Z,17.99
2022-07-29T01:04:40.089Z,17.95
2022-07-29T01:07:09.226Z,17.96
2022-07-29T01:09:45.247Z,17.95
2022-07-29T01:12:25.468Z,17.88
2022-07-29T01:14:55.881Z,17.93
2022-07-29T01:17:33.679Z,17.86
2022-07-29T01:20:50.281Z,17.85
2022-07-29T01:23:21.321Z,17.92
2022-07-29T01:25:56.062Z,17.86
2022-07-29T01:28:57.981Z,17.80
2022-07-29T01:32:00.561Z,17.78
2022-07-29T01:34:44.181Z,17.72
2022-07-29T01:37:36.555Z,17.84
2022-07-29T01:40:07.371Z,17.82
2022-07-29T01:42:46.618Z,17.81
2022-07-29T01:46:12.144Z,17.75
2022-07-29T01:48:50.404Z,17.72
2022-07-29T01:51:28.280Z,17.72
2022-07-29T01:54:20.884Z,17.72
2022-07-29T01:56:53.581Z,17.79
2022-07-29T01:59:24.298Z,17.73
2022-07-29T02:01:55.911Z,17.74
2022-07-29T02:04:29.213Z,17.75
2022-07-29T02:07:04.800Z,17.72
2022-07-29T02:09:36.464Z,17.73
2022-07-29T02:12:06.471Z,17.71
2022-07-29T02:14:42.933Z,17.68
2022-07-29T02:17:13.517Z,17.67
2022-07-29T02:19:43.392Z,17.67
2022-07-29T02:22:13.492Z,17.68
2022-07-29T02:24:42.205Z,17.63
2022-07-29T02:27:10.981Z,17.66
2022-07-29T02:29:41.948Z,17.68
2022-07-29T02:32:13.464Z,17.62
2022-07-29T02:34:43.709Z,17.62
2022-07-29T02:37:13.581Z,17.61
2022-07-29T02:39:44.769Z,17.59
2022-07-29T02:42:18.862Z,17.58
2022-07-29T02:44:47.355Z,17.52
2022-07-29T02:47:42.331Z,17.53
2022-07-29T02:50:18.046Z,17.55
2022-07-29T02:53:03.272Z,17.52
2022-07-29T02:55:38.742Z,17.48
2022-07-29T02:58:49.352Z,17.46
2022-07-29T03:01:23.846Z,17.45
2022-07-29T03:03:55.462Z,17.46
2022-07-29T03:06:37.893Z,17.51
2022-07-29T03:09:13.352Z,17.61
2022-07-29T03:11:49.988Z,17.52
2022-07-29T03:14:21.676Z,17.52
2022-07-29T03:16:51.393Z,17.50
2022-07-29T03:19:21.357Z,17.49
2022-07-29T03:21:50.089Z,17.48
2022-07-29T03:24:32.340Z,17.46
2022-07-29T03:27:01.221Z,17.46
2022-07-29T03:29:33.503Z,17.44
2022-07-29T03:32:08.301Z,17.45
2022-07-29T03:34:38.047Z,17.43
2022-07-29T03:37:07.941Z,17.42
2022-07-29T03:39:43.020Z,17.43
2022-07-29T03:42:21.743Z,17.43
2022-07-29T03:44:51.260Z,17.38
2022-07-29T03:47:43.555Z,17.32
2022-07-29T03:50:17.991Z,17.31
2022-07-29T03:52:46.437Z,17.30
2022-07-29T03:55:15.414Z,17.25
2022-07-29T03:57:45.096Z,17.22
2022-07-29T04:00:14.285Z,17.27
2022-07-29T04:02:46.085Z,17.24
2022-07-29T04:05:15.686Z,17.24
2022-07-29T04:07:47.464Z,17.27
2022-07-29T04:10:17.922Z,17.21
2022-07-29T04:12:59.244Z,17.24
2022-07-29T04:15:31.060Z,17.21
2022-07-29T04:18:00.909Z,17.22
2022-07-29T04:20:29.477Z,17.24
2022-07-29T04:22:57.871Z,17.26
2022-07-29T04:25:26.401Z,17.31
2022-07-29T04:28:03.858Z,17.35
2022-07-29T04:30:34.405Z,17.38
2022-07-29T04:33:05.204Z,17.37
2022-07-29T04:35:38.287Z,17.38
2022-07-29T04:38:15.672Z,17.38
2022-07-29T04:40:45.533Z,17.37
2022-07-29T04:43:16.099Z,17.34
2022-07-29T04:45:44.946Z,17.35
2022-07-29T04:48:13.930Z,17.36
2022-07-29T04:50:43.127Z,17.39
2022-07-29T04:53:11.550Z,17.38
2022-07-29T04:55:39.955Z,17.31
2022-07-29T04:58:08.549Z,17.36
2022-07-29T05:00:37.114Z,17.39
2022-07-29T05:03:05.955Z,17.42
2022-07-29T05:05:34.723Z,17.46
2022-07-29T05:08:03.175Z,17.50
2022-07-29T05:10:31.626Z,17.48
2022-07-29T05:13:00.101Z,17.52
2022-07-29T05:15:28.546Z,17.52
2022-07-29T05:17:57.046Z,17.56
2022-07-29T05:20:29.144Z,17.60
2022-07-29T05:23:01.879Z,17.68
2022-07-29T05:25:44.340Z,17.77
2022-07-29T05:28:13.729Z,17.90
2022-07-29T05:30:42.293Z,17.95
2022-07-29T05:33:35.064Z,18.03
2022-07-29T05:36:00.760Z,18.13
2022-07-29T05:38:30.180Z,18.17
2022-07-29T05:41:00.707Z,18.23
2022-07-29T05:43:30.389Z,18.28
2022-07-29T05:45:59.007Z,18.30
2022-07-29T05:48:27.616Z,18.35
2022-07-29T05:50:56.853Z,18.36
2022-07-29T05:53:25.652Z,18.45
2022-07-29T05:55:54.255Z,18.43
2022-07-29T05:58:23.064Z,18.47
2022-07-29T06:00:51.607Z,18.48
2022-07-29T06:03:20.031Z,18.49
2022-07-29T06:05:48.439Z,18.46
2022-07-29T06:08:16.865Z,18.49
2022-07-29T06:10:45.279Z,18.47
2022-07-29T06:13:14.138Z,18.48
2022-07-29T06:15:42.827Z,18.59
2022-07-29T06:18:11.754Z,18.61
2022-07-29T06:20:40.311Z,18.47
2022-07-29T06:23:08.717Z,18.41
2022-07-29T06:25:37.712Z,18.46
2022-07-29T06:28:06.316Z,18.37
2022-07-29T06:30:34.918Z,18.41
2022-07-29T06:33:03.748Z,18.41
2022-07-29T06:35:41.229Z,18.52
2022-07-29T06:38:33.925Z,18.58
2022-07-29T06:41:04.901Z,18.59
2022-07-29T06:43:51.754Z,18.63
2022-07-29T06:46:22.296Z,18.69
2022-07-29T06:48:51.318Z,18.75
2022-07-29T06:51:22.213Z,18.92
2022-07-29T06:54:00.394Z,19.10
2022-07-29T06:56:39.337Z,19.24
2022-07-29T06:59:09.552Z,19.38
2022-07-29T07:01:40.217Z,19.48
2022-07-29T07:04:09.870Z,19.87
2022-07-29T07:06:38.874Z,20.32
2022-07-29T07:09:07.397Z,20.76
2022-07-29T07:11:35.923Z,21.26
2022-07-29T07:14:05.105Z,21.85
2022-07-29T07:16:34.226Z,22.39
2022-07-29T07:19:03.132Z,22.76
2022-07-29T07:21:31.895Z,23.20
2022-07-29T07:24:01.514Z,23.48
2022-07-29T07:26:30.829Z,23.68
2022-07-29T07:29:00.391Z,23.91
2022-07-29T07:31:28.877Z,24.07
2022-07-29T07:33:57.324Z,24.25
2022-07-29T07:36:26.066Z,24.26
2022-07-29T07:38:54.504Z,24.47
2022-07-29T07:41:23.351Z,24.54
2022-07-29T07:43:51.766Z,24.42
2022-07-29T07:46:22.261Z,24.57
2022-07-29T07:48:50.960Z,24.74
2022-07-29T07:51:19.414Z,24.88
2022-07-29T07:53:50.616Z,24.94
2022-07-29T07:56:19.610Z,25.01
2022-07-29T07:58:48.045Z,25.20
2022-07-29T08:01:20.043Z,25.26
2022-07-29T08:03:48.628Z,25.40
2022-07-29T08:06:17.141Z,25.47
2022-07-29T08:08:45.601Z,25.56
2022-07-29T08:11:14.348Z,25.72
2022-07-29T08:13:42.851Z,25.80
2022-07-29T08:16:14.343Z,25.82
2022-07-29T08:18:44.860Z,25.67
2022-07-29T08:21:14.868Z,25.77
2022-07-29T08:23:58.943Z,25.79
2022-07-29T08:26:29.331Z,25.76
2022-07-29T08:28:57.735Z,25.89
2022-07-29T08:31:26.352Z,25.93
2022-07-29T08:33:54.802Z,25.99
2022-07-29T08:36:23.294Z,26.05
2022-07-29T08:38:52.007Z,26.20
2022-07-29T08:41:21.768Z,26.24
2022-07-29T08:43:54.069Z,26.42
2022-07-29T08:46:23.580Z,26.48
2022-07-29T08:48:52.519Z,26.51
2022-07-29T08:51:22.185Z,26.57
2022-07-29T08:53:52.153Z,26.71
2022-07-29T08:56:22.701Z,26.68
2022-07-29T08:58:52.592Z,26.61
2022-07-29T09:01:35.646Z,26.33
2022-07-29T09:04:08.710Z,26.23
2022-07-29T09:06:41.282Z,26.28
2022-07-29T09:09:10.928Z,26.41
2022-07-29T09:11:39.584Z,26.55
2022-07-29T09:14:08.339Z,26.62
2022-07-29T09:16:54.829Z,26.57
2022-07-29T09:19:35.868Z,26.69
2022-07-29T09:22:11.040Z,26.60
2022-07-29T09:24:49.579Z,26.71
2022-07-29T09:27:22.847Z,26.78
2022-07-29T09:30:12.555Z,26.76
2022-07-29T09:33:05.031Z,26.79
2022-07-29T09:35:33.846Z,26.76
2022-07-29T09:38:15.895Z,26.71
2022-07-29T09:40:44.358Z,26.82
2022-07-29T09:43:15.094Z,26.93
2022-07-29T09:45:43.720Z,26.78
2022-07-29T09:48:23.646Z,26.79
2022-07-29T09:50:53.500Z,26.74
2022-07-29T09:53:35.504Z,26.77
2022-07-29T09:56:04.102Z,26.64
2022-07-29T09:58:34.603Z,26.64
2022-07-29T10:01:03.262Z,26.51
2022-07-29T10:03:31.905Z,26.40
2022-07-29T10:06:14.568Z,26.32
2022-07-29T10:08:44.543Z,26.30
2022-07-29T10:11:14.746Z,26.15
2022-07-29T10:13:44.471Z,26.07
2022-07-29T10:16:14.274Z,26.07
2022-07-29T10:18:47.909Z,26.10
2022-07-29T10:21:22.588Z,26.10
2022-07-29T10:24:04.958Z,26.18
2022-07-29T10:26:33.490Z,26.24
2022-07-29T10:29:02.606Z,26.29
2022-07-29T10:32:04.721Z,26.27
2022-07-29T10:35:00.163Z,26.31
2022-07-29T10:38:16.422Z,26.36
2022-07-29T10:41:36.288Z,26.29
2022-07-29T10:44:23.207Z,26.23
2022-07-29T10:46:54.468Z,26.34
2022-07-29T10:49:30.409Z,26.35
2022-07-29T10:52:10.368Z,26.47
2022-07-29T10:54:39.658Z,26.45
2022-07-29T10:57:53.733Z,26.50
2022-07-29T11:00:16.942Z,26.41
2022-07-29T11:02:50.033Z,26.41
2022-07-29T11:05:24.759Z,26.51
2022-07-29T11:08:20.468Z,26.59
2022-07-29T11:10:51.156Z,26.55
2022-07-29T11:13:56.093Z,26.53
2022-07-29T11:16:26.662Z,26.54
2022-07-29T11:19:16.334Z,26.42
2022-07-29T11:21:58.369Z,26.47
2022-07-29T11:24:32.483Z,26.53
2022-07-29T11:27:14.297Z,26.57
2022-07-29T11:29:57.256Z,26.65
2022-07-29T11:32:38.372Z,26.60
2022-07-29T11:35:17.073Z,26.64
2022-07-29T11:37:52.539Z,26.68
2022-07-29T11:40:24.367Z,26.76
2022-07-29T11:42:52.943Z,26.82
2022-07-29T11:45:41.779Z,26.75
2022-07-29T11:48:28.798Z,26.77
2022-07-29T11:51:00.850Z,26.77
2022-07-29T11:53:32.884Z,26.87
2022-07-29T11:56:03.658Z,26.92
2022-07-29T11:58:32.643Z,26.93
2022-07-29T12:01:04.455Z,27.01
2022-07-29T12:03:36.214Z,26.92
2022-07-29T12:06:15.395Z,26.83
2022-07-29T12:08:46.114Z,26.75
2022-07-29T12:11:22.684Z,26.81
2022-07-29T12:13:53.102Z,26.85
2022-07-29T12:16:25.375Z,26.88
2022-07-29T12:19:05.288Z,26.92
2022-07-29T12:22:06.144Z,26.94
2022-07-29T12:24:46.300Z,27.03
2022-07-29T12:27:14.939Z,27.20
2022-07-29T12:29:47.970Z,27.42
2022-07-29T12:32:19.766Z,27.67
2022-07-29T12:34:48.468Z,27.73
2022-07-29T12:37:17.042Z,27.75
2022-07-29T12:39:46.364Z,27.70
2022-07-29T12:42:18.550Z,27.61
2022-07-29T12:44:50.495Z,27.51
2022-07-29T12:47:20.903Z,27.57
2022-07-29T12:49:50.351Z,27.64
2022-07-29T12:52:35.779Z,27.62
2022-07-29T12:55:05.157Z,27.64
2022-07-29T12:57:33.937Z,27.59
2022-07-29T13:00:12.572Z,27.54
2022-07-29T13:02:42.316Z,27.50
2022-07-29T13:05:13.741Z,27.44
2022-07-29T13:07:55.206Z,27.38
2022-07-29T13:10:30.458Z,27.37
2022-07-29T13:13:16.856Z,27.43
2022-07-29T13:15:48.861Z,27.59
2022-07-29T13:18:37.545Z,27.71
2022-07-29T13:21:18.953Z,27.91
2022-07-29T13:23:47.533Z,28.03
2022-07-29T13:26:17.288Z,28.18
2022-07-29T13:28:45.428Z,28.26
2022-07-29T13:31:13.560Z,28.32
2022-07-29T13:33:41.643Z,28.38
2022-07-29T13:36:09.784Z,28.41
2022-07-29T13:38:38.268Z,28.51
2022-07-29T13:41:06.784Z,28.54
2022-07-29T13:43:35.702Z,28.52
2022-07-29T13:46:03.887Z,28.51
2022-07-29T13:48:32.297Z,28.56
2022-07-29T13:51:00.389Z,28.65
2022-07-29T13:53:28.870Z,28.61
2022-07-29T13:55:57.355Z,28.56
2022-07-29T13:58:25.686Z,28.55
2022-07-29T14:00:53.872Z,28.49
2022-07-29T14:03:22.050Z,28.37
2022-07-29T14:05:50.150Z,28.35
2022-07-29T14:08:18.385Z,28.23
2022-07-29T14:10:47.089Z,28.13
2022-07-29T14:13:24.747Z,28.08
2022-07-29T14:15:54.299Z,28.12
2022-07-29T14:18:22.465Z,28.21
2022-07-29T14:20:51.683Z,28.18
2022-07-29T14:23:20.627Z,28.07
2022-07-29T14:25:49.367Z,27.85
2022-07-29T14:28:18.169Z,27.84
2022-07-29T14:30:46.674Z,27.79
2022-07-29T14:33:15.201Z,27.79
2022-07-29T14:35:43.360Z,27.75
2022-07-29T14:38:11.477Z,27.68
2022-07-29T14:40:40.261Z,27.65
2022-07-29T14:43:08.983Z,27.67
2022-07-29T14:45:37.819Z,27.72
2022-07-29T14:48:06.020Z,27.81
2022-07-29T14:50:34.642Z,27.87
2022-07-29T14:53:03.289Z,27.93
2022-07-29T14:55:31.594Z,27.93
2022-07-29T14:58:09.832Z,28.01
2022-07-29T15:00:40.452Z,28.02
2022-07-29T15:03:10.999Z,28.12
2022-07-29T15:05:39.698Z,28.14
2022-07-29T15:08:09.229Z,28.19
2022-07-29T15:10:37.534Z,28.19
2022-07-29T15:13:05.975Z,28.23
2022-07-29T15:15:34.594Z,28.24
2022-07-29T15:18:03.018Z,28.28
2022-07-29T15:20:31.573Z,28.30
2022-07-29T15:23:00.376Z,28.29
2022-07-29T15:25:28.957Z,28.30
2022-07-29T15:28:01.267Z,28.16
2022-07-29T15:30:34.109Z,28.17
2022-07-29T15:33:06.466Z,28.20
2022-07-29T15:35:39.937Z,28.16
2022-07-29T15:38:09.565Z,28.20
2022-07-29T15:40:42.387Z,28.27
2022-07-29T15:43:10.454Z,28.29
2022-07-29T15:46:04.554Z,28.30
2022-07-29T15:48:33.533Z,28.41
2022-07-29T15:51:02.454Z,28.47
2022-07-29T15:53:30.837Z,28.44
2022-07-29T15:56:00.943Z,28.18
2022-07-29T15:58:29.055Z,27.85
2022-07-29T16:00:57.730Z,27.66
2022-07-29T16:03:26.221Z,27.29
2022-07-29T16:05:55.047Z,27.03
2022-07-29T16:08:23.460Z,26.82
2022-07-29T16:10:52.059Z,26.80
2022-07-29T16:13:20.891Z,26.51
2022-07-29T16:16:02.505Z,26.33
2022-07-29T16:18:31.722Z,26.05
2022-07-29T16:21:00.412Z,25.99
2022-07-29T16:23:28.764Z,25.81
2022-07-29T16:26:00.220Z,25.73
2022-07-29T16:28:30.358Z,25.65
2022-07-29T16:30:59.278Z,25.55
2022-07-29T16:33:28.347Z,25.42
2022-07-29T16:36:18.634Z,25.31
2022-07-29T16:38:48.014Z,25.21
2022-07-29T16:41:16.705Z,25.18
2022-07-29T16:43:45.251Z,25.12
2022-07-29T16:46:17.770Z,25.09
2022-07-29T16:48:47.756Z,25.06
2022-07-29T16:51:17.289Z,25.10
2022-07-29T16:53:45.942Z,25.08
2022-07-29T16:56:18.160Z,25.08
2022-07-29T16:58:47.232Z,25.05
2022-07-29T17:01:16.109Z,25.06
2022-07-29T17:04:00.525Z,25.06
2022-07-29T17:06:30.041Z,25.05
2022-07-29T17:08:59.253Z,25.07
2022-07-29T17:11:51.889Z,25.11
2022-07-29T17:14:16.481Z,25.15
2022-07-29T17:16:51.638Z,25.18
2022-07-29T17:19:28.893Z,25.17
2022-07-29T17:22:06.742Z,25.16
2022-07-29T17:24:39.053Z,25.14
2022-07-29T17:27:09.973Z,25.12
2022-07-29T17:29:39.305Z,25.08
2022-07-29T17:32:09.831Z,25.03
2022-07-29T17:34:43.201Z,24.98
2022-07-29T17:37:13.767Z,24.94
2022-07-29T17:39:43.646Z,24.89
2022-07-29T17:42:14.449Z,24.84
2022-07-29T17:44:43.215Z,24.79
2022-07-29T17:47:16.281Z,24.72
2022-07-29T17:49:45.842Z,24.66
2022-07-29T17:52:14.583Z,24.62
2022-07-29T17:54:43.245Z,24.57
2022-07-29T17:57:11.800Z,24.53
2022-07-29T17:59:40.305Z,24.50
2022-07-29T18:02:10.033Z,24.45
2022-07-29T18:04:39.058Z,24.43
2022-07-29T18:07:07.678Z,24.51
2022-07-29T18:09:39.151Z,24.56
2022-07-29T18:12:08.089Z,24.60
2022-07-29T18:14:36.573Z,24.62
2022-07-29T18:17:05.319Z,24.63
2022-07-29T18:19:33.972Z,24.61
2022-07-29T18:22:05.371Z,24.63
2022-07-29T18:24:34.980Z,24.67
2022-07-29T18:27:03.436Z,24.74
2022-07-29T18:29:32.182Z,24.75
2022-07-29T18:32:01.706Z,24.76
2022-07-29T18:34:30.448Z,24.77
2022-07-29T18:37:01.465Z,24.78
2022-07-29T18:39:30.042Z,24.77
2022-07-29T18:41:58.545Z,24.78
2022-07-29T18:44:27.133Z,24.74
2022-07-29T18:46:56.183Z,24.71
2022-07-29T18:49:27.350Z,24.62
2022-07-29T18:51:56.883Z,24.57
2022-07-29T18:54:25.373Z,24.56
2022-07-29T18:56:53.949Z,24.54
2022-07-29T18:59:22.415Z,24.60
2022-07-29T19:01:51.334Z,24.51
2022-07-29T19:04:19.937Z,24.50
2022-07-29T19:06:48.527Z,24.45
2022-07-29T19:09:17.701Z,24.37
2022-07-29T19:11:46.185Z,24.33
2022-07-29T19:14:14.607Z,24.33
2022-07-29T19:16:43.053Z,24.33
2022-07-29T19:19:11.829Z,24.32
2022-07-29T19:21:40.396Z,24.32
2022-07-29T19:24:13.594Z,24.28
2022-07-29T19:26:46.876Z,24.23
2022-07-29T19:29:16.147Z,24.22
2022-07-29T19:31:45.215Z,24.21
2022-07-29T19:34:13.738Z,24.11
2022-07-29T19:36:42.423Z,24.13
2022-07-29T19:39:11.551Z,24.08
2022-07-29T19:41:40.228Z,24.05
2022-07-29T19:44:08.781Z,24.02
2022-07-29T19:46:38.359Z,24.01
2022-07-29T19:49:08.417Z,23.94
2022-07-29T19:51:37.461Z,23.88
2022-07-29T19:54:06.411Z,23.83
2022-07-29T19:56:34.933Z,23.83
2022-07-29T19:59:07.411Z,23.81
2022-07-29T20:01:36.453Z,23.80
2022-07-29T20:04:05.247Z,23.75
2022-07-29T20:06:33.923Z,23.69
2022-07-29T20:09:02.379Z,23.63
2022-07-29T20:11:30.983Z,23.55
2022-07-29T20:13:59.560Z,23.50
2022-07-29T20:16:28.146Z,23.43
2022-07-29T20:18:56.649Z,23.39
2022-07-29T20:21:26.766Z,23.35
2022-07-29T20:23:56.831Z,23.29
2022-07-29T20:26:25.330Z,23.26
2022-07-29T20:28:53.872Z,23.22
2022-07-29T20:31:22.861Z,23.19
2022-07-29T20:33:51.586Z,23.16
2022-07-29T20:36:20.201Z,23.12
2022-07-29T20:38:48.712Z,23.10
2022-07-29T20:41:17.207Z,23.07
2022-07-29T20:43:45.837Z,23.05
2022-07-29T20:46:14.590Z,23.01
2022-07-29T20:48:43.172Z,22.96
2022-07-29T20:51:11.831Z,22.92
2022-07-29T20:53:41.288Z,22.91
2022-07-29T20:56:10.966Z,22.88
2022-07-29T20:58:40.544Z,22.87
2022-07-29T21:01:09.620Z,22.83
2022-07-29T21:03:38.167Z,22.82
2022-07-29T21:06:07.890Z,22.81
2022-07-29T21:08:36.722Z,22.79
2022-07-29T21:11:05.278Z,22.77
2022-07-29T21:13:38.308Z,22.75
2022-07-29T21:16:14.918Z,22.67
2022-07-29T21:18:46.067Z,22.49
2022-07-29T21:21:17.972Z,22.21
2022-07-29T21:23:47.020Z,21.92
2022-07-29T21:26:16.016Z,21.54
2022-07-29T21:28:43.966Z,21.35
2022-07-29T21:31:16.734Z,21.14
2022-07-29T21:33:47.676Z,20.96
2022-07-29T21:37:39.270Z,20.75
2022-07-29T21:40:08.921Z,20.59
2022-07-29T21:42:37.334Z,20.49
2022-07-29T21:45:07.558Z,20.43
2022-07-29T21:47:38.312Z,20.37
2022-07-29T21:50:07.802Z,20.16
2022-07-29T21:52:37.345Z,20.06
2022-07-29T21:55:06.168Z,19.92
2022-07-29T21:57:35.579Z,19.85
2022-07-29T22:00:04.173Z,19.81
2022-07-29T22:02:32.648Z,19.76
2022-07-29T22:05:01.299Z,19.71
2022-07-29T22:07:54.250Z,19.68
2022-07-29T22:10:18.654Z,19.63
2022-07-29T22:12:47.116Z,19.55
2022-07-29T22:15:15.673Z,19.49
2022-07-29T22:17:45.005Z,19.40
2022-07-29T22:20:14.117Z,19.33
2022-07-29T22:22:42.891Z,19.27
2022-07-29T22:25:11.737Z,19.23
2022-07-29T22:27:41.037Z,19.19
2022-07-29T22:30:10.015Z,19.09
2022-07-29T22:32:38.483Z,19.05
2022-07-29T22:35:07.680Z,19.02
2022-07-29T22:37:36.162Z,19.00
2022-07-29T22:40:05.435Z,19.00
2022-07-29T22:42:34.589Z,18.98
2022-07-29T22:45:03.204Z,18.97
2022-07-29T22:47:38.806Z,18.93
2022-07-29T22:50:16.308Z,18.88
2022-07-29T22:52:44.705Z,18.85
2022-07-29T22:55:13.369Z,18.85
2022-07-29T22:57:42.022Z,18.84
2022-07-29T23:00:11.125Z,18.87
2022-07-29T23:02:40.396Z,18.87
2022-07-29T23:05:10.446Z,18.89
2022-07-29T23:07:38.946Z,18.90
2022-07-29T23:10:07.936Z,18.91
2022-07-29T23:12:36.523Z,18.90
2022-07-29T23:15:05.784Z,18.92
2022-07-29T23:17:36.554Z,18.93
2022-07-29T23:20:09.783Z,18.93
2022-07-29T23:22:38.530Z,18.94
2022-07-29T23:25:07.829Z,18.93
2022-07-29T23:27:36.348Z,18.92
2022-07-29T23:30:05.595Z,18.92
2022-07-29T23:32:34.135Z,18.92
2022-07-29T23:35:02.667Z,18.93
2022-07-29T23:37:31.255Z,18.93
2022-07-29T23:39:59.737Z,18.94
2022-07-29T23:42:28.402Z,18.91
2022-07-29T23:44:56.856Z,18.88
2022-07-29T23:47:25.592Z,18.89
2022-07-29T23:49:54.087Z,18.89
2022-07-29T23:52:22.564Z,18.88
2022-07-29T23:54:51.576Z,18.90
2022-07-29T23:57:22.807Z,18.78
2022-07-29T23:59:51.643Z,18.80
